x

Venice, Fl (venf1) Weather Station

9:00am - Wed 23rd Apr 2014 All times are EDT. -4 hours from GMT.

  • Wind
    9mph, 10mph gusts
  • Sea Temp 73°f
  • Air Temp 71°f
  • Sea Pressure 1014.1mb
  • Venice, Fl
  • Venice, Fl

More Historic Weather Station data

Upgrade to MSW Pro to gain access to the past 30 days of data for over 8000 Wavebouys and Weather Stations around the globe.

Join Pro

Comparision Forecast

View Surf forecast
   
Wed 04/23 9:00am 9 10 mph 1014.1mb 73f 71f
8:00am 11 15 mph 1013.8mb 73f 70f
7:00am 11
mph
1013.1mb 73f 69f
6:00am 13 14 mph 1012.5mb 73f 69f
5:00am 11 14 mph 1012.3mb 73f 69f
4:00am 8 9 mph 1012mb 73f 69f
3:00am 10 13 mph 1012.3mb 73f 69f
2:00am 8
mph
1012.7mb 73f 69f
1:00am 9 10 mph 1013.1mb 74f 69f
12:00am 9 10 mph 1013.3mb 74f 69f
Tue 04/22 11:00pm 9 10 mph 1013.3mb 74f 69f
10:00pm 14 15 mph 1013.1mb 74f 70f
9:00pm 14 15 mph 1012.4mb 74f 70f
8:00pm 8 9 mph 1011.6mb 74f 70f
7:00pm 9 11 mph 1011.7mb 74f 71f
6:00pm 11 13 mph 1011.8mb 75f 71f
5:00pm 11 14 mph 1012.3mb 75f 71f
4:00pm 11 14 mph 1012.9mb 75f 71f
3:00pm 13 16 mph 1013.7mb 74f 70f
2:00pm 11 14 mph 1014.4mb 74f 70f
1:00pm 8 10 mph 1014.6mb 74f 70f
12:00pm 6 7 mph 1015.1mb 73f 70f
11:00am 3
mph
1015.2mb 73f 69f
10:00am 3 5 mph 1015.2mb 73f 68f
9:00am 3
mph
1014.9mb 73f 65f
8:00am 5
mph
1014.8mb 73f 63f
7:00am 3 5 mph 1014.1mb 73f 61f
6:00am 7 8 mph 1013.4mb 73f 62f
5:00am 7 9 mph 1013.4mb 73f 62f
4:00am 6 7 mph 1013.6mb 73f 62f
3:00am 5 6 mph 1013.6mb 73f 63f
2:00am 6 8 mph 1014.7mb 73f 64f
1:00am 6 7 mph 1015.2mb 73f 64f
12:00am 7
mph
1015.8mb 73f 65f
Mon 04/21 11:00pm 6 7 mph 1015.9mb 73f 66f
10:00pm 3
mph
1015.7mb 73f 66f
9:00pm 5 6 mph 1015.4mb 73f 67f
8:00pm 7 10 mph 1014.7mb 73f 69f
7:00pm 18 22 mph 1014.5mb 74f 69f
6:00pm 18 20 mph 1014.5mb 74f 68f
5:00pm 17 20 mph 1015mb 74f 68f
4:00pm 17 20 mph 1015.6mb 74f 67f
3:00pm 14 17 mph 1016.2mb 73f 67f
2:00pm 14 16 mph 1017mb 73f 66f
1:00pm 11 13 mph 1017.8mb 73f 66f
12:00pm 11 14 mph 1018.3mb 73f 66f
11:00am 11 14 mph 1018.4mb 73f 65f
10:00am 9 13 mph 1018.5mb 73f 65f
9:00am 6 7 mph 1018.2mb 73f 63f
8:00am 10 13 mph 1018mb 73f 63f
7:00am 9 13 mph 1017.4mb 73f 62f
6:00am 10 11 mph 1016.9mb 73f 63f
5:00am 7 8 mph 1016.8mb 73f 63f
4:00am 7 9 mph 1017.1mb 73f 62f
3:00am 6 8 mph 1017.1mb 73f 62f
2:00am 7 9 mph 1017.4mb 73f 63f
1:00am 6 7 mph 1017.9mb 73f 64f
12:00am 7 8 mph 1017.8mb 73f 64f
Sun 04/20 11:00pm 10 13 mph 1018mb 73f 66f
10:00pm 10 13 mph 1017.5mb 74f 67f
9:00pm 17 20 mph 1017.2mb 74f 68f
8:00pm 21 23 mph 1016.6mb 74f 68f
7:00pm 20 21 mph 1016.2mb 74f 69f
6:00pm 18 20 mph 1016.4mb 74f 70f
5:00pm 17 18 mph 1016.4mb 74f 69f
4:00pm 16 18 mph 1016.6mb 74f 69f
3:00pm 14 15 mph 1017mb 74f 69f
2:00pm 13 14 mph 1017.2mb 74f 69f
1:00pm 9 11 mph 1017.6mb 74f 69f
12:00pm 10 13 mph 1017.6mb 74f 69f
11:00am 5 8 mph 1017.8mb 73f 68f
10:00am 10 14 mph 1017.3mb 73f 67f
9:00am 8 10 mph 1017.1mb 73f 65f
8:00am 8 9 mph 1016.7mb 73f 64f
7:00am 6 7 mph 1016.1mb 73f 63f
6:00am 5 6 mph 1015.4mb 73f 64f
5:00am 5 6 mph 1015.1mb 73f 63f
4:00am 5
mph
1015mb 73f 64f
3:00am 6 7 mph 1015.1mb 73f 65f
2:00am 8 10 mph 1015.6mb 73f 64f
1:00am 17 20 mph 1016mb 73f 65f
12:00am 21 23 mph 1015.8mb 73f 66f
Sat 04/19 11:00pm 18 21 mph 1015.6mb 73f 67f
10:00pm 17 18 mph 1015.2mb 73f 66f
9:00pm 18 21 mph 1015mb 74f 67f
8:00pm 21 23 mph 1014.7mb 74f 66f
7:00pm 18 22 mph 1014.4mb 74f 67f
6:00pm 21 23 mph 1014.2mb 74f 67f
5:00pm 20 22 mph 1013.5mb 74f 68f
4:00pm 18 21 mph 1013.6mb 74f 68f
3:00pm 18 21 mph 1013.9mb 74f 69f